sensor_id;sensor_type;location;lat;lon;timestamp;temperature;humidity
1948;DHT22;974;52.400;9.818;2023-05-02T00:00:00;12.90;85.90
1948;DHT22;974;52.400;9.818;2023-05-02T00:02:25;12.90;86.30
1948;DHT22;974;52.400;9.818;2023-05-02T00:04:51;12.90;86.50
1948;DHT22;974;52.400;9.818;2023-05-02T00:07:17;12.90;86.70
1948;DHT22;974;52.400;9.818;2023-05-02T00:09:43;12.90;87.40
1948;DHT22;974;52.400;9.818;2023-05-02T00:12:08;12.90;87.50
1948;DHT22;974;52.400;9.818;2023-05-02T00:14:34;12.80;87.70
1948;DHT22;974;52.400;9.818;2023-05-02T00:16:59;12.80;87.90
1948;DHT22;974;52.400;9.818;2023-05-02T00:19:25;12.80;88.20
1948;DHT22;974;52.400;9.818;2023-05-02T00:21:50;12.80;88.60
1948;DHT22;974;52.400;9.818;2023-05-02T00:24:19;12.80;88.80
1948;DHT22;974;52.400;9.818;2023-05-02T00:26:44;12.80;89.00
1948;DHT22;974;52.400;9.818;2023-05-02T00:29:10;12.80;89.10
1948;DHT22;974;52.400;9.818;2023-05-02T00:31:36;12.80;89.30
1948;DHT22;974;52.400;9.818;2023-05-02T00:34:01;12.80;89.60
1948;DHT22;974;52.400;9.818;2023-05-02T00:36:26;12.80;90.00
1948;DHT22;974;52.400;9.818;2023-05-02T00:38:52;12.80;90.00
1948;DHT22;974;52.400;9.818;2023-05-02T00:41:18;12.80;90.20
1948;DHT22;974;52.400;9.818;2023-05-02T00:43:43;12.80;90.30
1948;DHT22;974;52.400;9.818;2023-05-02T00:46:09;12.70;90.40
1948;DHT22;974;52.400;9.818;2023-05-02T00:48:37;12.70;90.40
1948;DHT22;974;52.400;9.818;2023-05-02T00:51:03;12.70;90.70
1948;DHT22;974;52.400;9.818;2023-05-02T00:53:30;12.70;90.70
1948;DHT22;974;52.400;9.818;2023-05-02T00:56:01;12.70;90.80
1948;DHT22;974;52.400;9.818;2023-05-02T00:58:27;12.70;90.90
1948;DHT22;974;52.400;9.818;2023-05-02T01:03:41;12.70;91.30
1948;DHT22;974;52.400;9.818;2023-05-02T01:12:04;12.70;91.90
1948;DHT22;974;52.400;9.818;2023-05-02T01:14:34;12.50;92.30
1948;DHT22;974;52.400;9.818;2023-05-02T01:17:03;12.50;92.30
1948;DHT22;974;52.400;9.818;2023-05-02T01:19:39;12.60;92.70
1948;DHT22;974;52.400;9.818;2023-05-02T01:22:08;12.40;93.00
1948;DHT22;974;52.400;9.818;2023-05-02T01:24:40;12.50;93.10
1948;DHT22;974;52.400;9.818;2023-05-02T01:27:21;12.40;93.40
1948;DHT22;974;52.400;9.818;2023-05-02T01:29:49;12.40;93.70
1948;DHT22;974;52.400;9.818;2023-05-02T01:32:16;12.30;93.90
1948;DHT22;974;52.400;9.818;2023-05-02T01:34:45;12.30;94.20
1948;DHT22;974;52.400;9.818;2023-05-02T01:37:12;12.20;94.70
1948;DHT22;974;52.400;9.818;2023-05-02T01:39:39;12.20;95.00
1948;DHT22;974;52.400;9.818;2023-05-02T01:42:05;12.20;95.20
1948;DHT22;974;52.400;9.818;2023-05-02T01:44:32;12.10;95.70
1948;DHT22;974;52.400;9.818;2023-05-02T01:47:01;12.10;96.30
1948;DHT22;974;52.400;9.818;2023-05-02T01:49:29;12.10;96.80
1948;DHT22;974;52.400;9.818;2023-05-02T01:52:02;12.10;97.00
1948;DHT22;974;52.400;9.818;2023-05-02T01:54:30;12.10;97.50
1948;DHT22;974;52.400;9.818;2023-05-02T01:56:55;12.00;97.90
1948;DHT22;974;52.400;9.818;2023-05-02T01:59:23;12.00;98.40
1948;DHT22;974;52.400;9.818;2023-05-02T02:01:51;12.10;98.60
1948;DHT22;974;52.400;9.818;2023-05-02T02:04:18;12.00;99.10
1948;DHT22;974;52.400;9.818;2023-05-02T02:06:47;12.00;99.30
1948;DHT22;974;52.400;9.818;2023-05-02T02:09:15;12.10;99.80
1948;DHT22;974;52.400;9.818;2023-05-02T02:11:48;12.00;99.90
1948;DHT22;974;52.400;9.818;2023-05-02T02:14:19;11.90;99.90
1948;DHT22;974;52.400;9.818;2023-05-02T02:16:45;11.90;99.90
1948;DHT22;974;52.400;9.818;2023-05-02T02:19:13;11.80;99.90
1948;DHT22;974;52.400;9.818;2023-05-02T02:21:42;11.80;99.90
1948;DHT22;974;52.400;9.818;2023-05-02T02:24:08;11.80;99.90
1948;DHT22;974;52.400;9.818;2023-05-02T02:26:34;11.70;99.90
1948;DHT22;974;52.400;9.818;2023-05-02T02:29:00;11.80;99.90
1948;DHT22;974;52.400;9.818;2023-05-02T02:31:34;11.80;99.90
1948;DHT22;974;52.400;9.818;2023-05-02T02:34:00;11.70;99.90
1948;DHT22;974;52.400;9.818;2023-05-02T02:36:38;11.70;99.90
1948;DHT22;974;52.400;9.818;2023-05-02T02:47:46;11.70;99.90
1948;DHT22;974;52.400;9.818;2023-05-02T02:52:54;11.60;99.90
1948;DHT22;974;52.400;9.818;2023-05-02T02:58:03;11.70;99.90
1948;DHT22;974;52.400;9.818;2023-05-02T03:00:31;11.60;99.90
1948;DHT22;974;52.400;9.818;2023-05-02T03:02:57;11.60;99.90
1948;DHT22;974;52.400;9.818;2023-05-02T03:05:23;11.70;99.90
1948;DHT22;974;52.400;9.818;2023-05-02T03:07:48;11.60;99.90
1948;DHT22;974;52.400;9.818;2023-05-02T03:10:14;11.50;99.90
1948;DHT22;974;52.400;9.818;2023-05-02T03:12:40;11.40;99.90
1948;DHT22;974;52.400;9.818;2023-05-02T03:17:55;11.50;99.90
1948;DHT22;974;52.400;9.818;2023-05-02T03:20:20;11.40;99.90
1948;DHT22;974;52.400;9.818;2023-05-02T03:22:46;11.30;99.90
1948;DHT22;974;52.400;9.818;2023-05-02T03:25:11;11.30;99.90
1948;DHT22;974;52.400;9.818;2023-05-02T03:27:37;11.30;99.90
1948;DHT22;974;52.400;9.818;2023-05-02T03:30:03;11.30;99.90
1948;DHT22;974;52.400;9.818;2023-05-02T03:32:28;11.40;99.90
1948;DHT22;974;52.400;9.818;2023-05-02T03:34:54;11.30;99.90
1948;DHT22;974;52.400;9.818;2023-05-02T03:37:23;11.30;99.90
1948;DHT22;974;52.400;9.818;2023-05-02T03:39:48;11.30;99.90
1948;DHT22;974;52.400;9.818;2023-05-02T03:42:14;11.30;99.90
1948;DHT22;974;52.400;9.818;2023-05-02T03:44:39;11.30;99.90
1948;DHT22;974;52.400;9.818;2023-05-02T03:47:05;11.30;99.90
1948;DHT22;974;52.400;9.818;2023-05-02T03:49:33;11.30;99.90
1948;DHT22;974;52.400;9.818;2023-05-02T03:51:59;11.30;99.90
1948;DHT22;974;52.400;9.818;2023-05-02T03:54:25;11.30;99.90
1948;DHT22;974;52.400;9.818;2023-05-02T03:56:53;11.40;99.90
1948;DHT22;974;52.400;9.818;2023-05-02T03:59:18;11.40;99.90
1948;DHT22;974;52.400;9.818;2023-05-02T04:01:43;11.30;99.90
1948;DHT22;974;52.400;9.818;2023-05-02T04:04:09;11.40;99.90
1948;DHT22;974;52.400;9.818;2023-05-02T04:06:35;11.30;99.90
1948;DHT22;974;52.400;9.818;2023-05-02T04:09:02;11.40;99.90
1948;DHT22;974;52.400;9.818;2023-05-02T04:11:27;11.40;99.90
1948;DHT22;974;52.400;9.818;2023-05-02T04:13:53;11.40;99.90
1948;DHT22;974;52.400;9.818;2023-05-02T04:16:18;11.40;99.90
1948;DHT22;974;52.400;9.818;2023-05-02T04:18:44;11.40;99.90
1948;DHT22;974;52.400;9.818;2023-05-02T04:21:09;11.40;99.90
1948;DHT22;974;52.400;9.818;2023-05-02T04:23:35;11.20;99.90
1948;DHT22;974;52.400;9.818;2023-05-02T04:26:00;11.10;99.90
1948;DHT22;974;52.400;9.818;2023-05-02T04:28:26;11.00;99.90
1948;DHT22;974;52.400;9.818;2023-05-02T04:30:51;11.00;99.90
1948;DHT22;974;52.400;9.818;2023-05-02T04:33:17;11.00;99.90
1948;DHT22;974;52.400;9.818;2023-05-02T04:35:43;10.90;99.90
1948;DHT22;974;52.400;9.818;2023-05-02T04:38:08;10.90;99.90
1948;DHT22;974;52.400;9.818;2023-05-02T04:40:34;10.90;99.90
1948;DHT22;974;52.400;9.818;2023-05-02T04:43:00;10.90;99.90
1948;DHT22;974;52.400;9.818;2023-05-02T04:45:25;11.00;99.90
1948;DHT22;974;52.400;9.818;2023-05-02T04:47:51;10.90;99.90
1948;DHT22;974;52.400;9.818;2023-05-02T04:50:17;10.90;99.90
1948;DHT22;974;52.400;9.818;2023-05-02T04:52:42;11.00;99.90
1948;DHT22;974;52.400;9.818;2023-05-02T04:55:08;10.90;99.90
1948;DHT22;974;52.400;9.818;2023-05-02T04:57:33;10.90;99.90
1948;DHT22;974;52.400;9.818;2023-05-02T04:59:59;10.90;99.90
1948;DHT22;974;52.400;9.818;2023-05-02T05:02:24;10.80;99.90
1948;DHT22;974;52.400;9.818;2023-05-02T05:04:51;10.60;99.90
1948;DHT22;974;52.400;9.818;2023-05-02T05:07:16;10.70;99.90
1948;DHT22;974;52.400;9.818;2023-05-02T05:09:41;10.60;99.90
1948;DHT22;974;52.400;9.818;2023-05-02T05:12:07;10.50;99.90
1948;DHT22;974;52.400;9.818;2023-05-02T05:14:33;10.50;99.90
1948;DHT22;974;52.400;9.818;2023-05-02T05:16:58;10.50;99.90
1948;DHT22;974;52.400;9.818;2023-05-02T05:19:24;10.40;99.90
1948;DHT22;974;52.400;9.818;2023-05-02T05:21:50;10.40;99.90
1948;DHT22;974;52.400;9.818;2023-05-02T05:24:16;10.30;99.90
1948;DHT22;974;52.400;9.818;2023-05-02T05:26:41;10.10;99.90
1948;DHT22;974;52.400;9.818;2023-05-02T05:29:07;10.20;99.90
1948;DHT22;974;52.400;9.818;2023-05-02T05:31:32;10.00;99.90
1948;DHT22;974;52.400;9.818;2023-05-02T05:33:58;10.00;99.90
1948;DHT22;974;52.400;9.818;2023-05-02T05:36:23;10.00;99.90
1948;DHT22;974;52.400;9.818;2023-05-02T05:38:49;9.90;99.90
1948;DHT22;974;52.400;9.818;2023-05-02T05:41:15;9.90;99.90
1948;DHT22;974;52.400;9.818;2023-05-02T05:43:41;10.00;99.90
1948;DHT22;974;52.400;9.818;2023-05-02T05:46:06;9.80;99.90
1948;DHT22;974;52.400;9.818;2023-05-02T05:48:32;9.80;99.90
1948;DHT22;974;52.400;9.818;2023-05-02T05:51:01;9.70;99.90
1948;DHT22;974;52.400;9.818;2023-05-02T05:53:27;9.50;99.90
1948;DHT22;974;52.400;9.818;2023-05-02T05:55:52;9.40;99.90
1948;DHT22;974;52.400;9.818;2023-05-02T05:58:18;9.40;99.90
1948;DHT22;974;52.400;9.818;2023-05-02T06:00:43;9.30;99.90
1948;DHT22;974;52.400;9.818;2023-05-02T06:03:09;9.40;99.90
1948;DHT22;974;52.400;9.818;2023-05-02T06:05:34;9.20;99.90
1948;DHT22;974;52.400;9.818;2023-05-02T06:08:00;9.20;99.90
1948;DHT22;974;52.400;9.818;2023-05-02T06:10:25;9.20;99.90
1948;DHT22;974;52.400;9.818;2023-05-02T06:12:51;9.30;99.90
1948;DHT22;974;52.400;9.818;2023-05-02T06:15:16;9.30;99.90
1948;DHT22;974;52.400;9.818;2023-05-02T06:17:42;9.30;99.90
1948;DHT22;974;52.400;9.818;2023-05-02T06:20:08;9.30;99.90
1948;DHT22;974;52.400;9.818;2023-05-02T06:22:34;9.40;99.90
1948;DHT22;974;52.400;9.818;2023-05-02T06:24:59;9.40;99.90
1948;DHT22;974;52.400;9.818;2023-05-02T06:27:25;9.50;99.90
1948;DHT22;974;52.400;9.818;2023-05-02T06:29:51;9.50;99.90
1948;DHT22;974;52.400;9.818;2023-05-02T06:32:17;9.60;99.90
1948;DHT22;974;52.400;9.818;2023-05-02T06:34:43;9.40;99.90
1948;DHT22;974;52.400;9.818;2023-05-02T06:37:08;9.30;99.90
1948;DHT22;974;52.400;9.818;2023-05-02T06:39:34;9.30;99.90
1948;DHT22;974;52.400;9.818;2023-05-02T06:41:59;9.20;99.90
1948;DHT22;974;52.400;9.818;2023-05-02T06:44:25;9.30;99.90
1948;DHT22;974;52.400;9.818;2023-05-02T06:46:51;9.40;99.90
1948;DHT22;974;52.400;9.818;2023-05-02T06:49:16;9.50;99.90
1948;DHT22;974;52.400;9.818;2023-05-02T06:51:42;9.40;99.90
1948;DHT22;974;52.400;9.818;2023-05-02T06:54:08;9.50;99.90
1948;DHT22;974;52.400;9.818;2023-05-02T06:56:34;9.50;99.90
1948;DHT22;974;52.400;9.818;2023-05-02T06:58:59;9.50;99.90
1948;DHT22;974;52.400;9.818;2023-05-02T07:01:25;9.60;99.90
1948;DHT22;974;52.400;9.818;2023-05-02T07:03:50;9.50;99.90
1948;DHT22;974;52.400;9.818;2023-05-02T07:06:16;9.50;99.90
1948;DHT22;974;52.400;9.818;2023-05-02T07:08:42;9.70;99.90
1948;DHT22;974;52.400;9.818;2023-05-02T07:11:07;9.80;99.90
1948;DHT22;974;52.400;9.818;2023-05-02T07:13:33;9.80;99.90
1948;DHT22;974;52.400;9.818;2023-05-02T07:15:58;9.80;99.90
1948;DHT22;974;52.400;9.818;2023-05-02T07:18:24;9.80;99.90
1948;DHT22;974;52.400;9.818;2023-05-02T07:20:49;9.80;99.90
1948;DHT22;974;52.400;9.818;2023-05-02T07:23:15;9.90;99.90
1948;DHT22;974;52.400;9.818;2023-05-02T07:25:40;10.00;99.90
1948;DHT22;974;52.400;9.818;2023-05-02T07:28:07;9.80;99.90
1948;DHT22;974;52.400;9.818;2023-05-02T07:30:33;9.90;99.90
1948;DHT22;974;52.400;9.818;2023-05-02T07:32:58;9.90;99.90
1948;DHT22;974;52.400;9.818;2023-05-02T07:35:24;9.80;99.90
1948;DHT22;974;52.400;9.818;2023-05-02T07:37:49;10.00;99.90
1948;DHT22;974;52.400;9.818;2023-05-02T07:40:15;10.00;99.90
1948;DHT22;974;52.400;9.818;2023-05-02T07:42:40;10.00;99.90
1948;DHT22;974;52.400;9.818;2023-05-02T07:45:07;10.00;99.90
1948;DHT22;974;52.400;9.818;2023-05-02T07:47:32;10.10;99.90
1948;DHT22;974;52.400;9.818;2023-05-02T07:49:58;10.10;99.90
1948;DHT22;974;52.400;9.818;2023-05-02T07:52:23;10.10;99.90
1948;DHT22;974;52.400;9.818;2023-05-02T07:54:49;10.10;99.90
1948;DHT22;974;52.400;9.818;2023-05-02T07:57:15;10.00;99.90
1948;DHT22;974;52.400;9.818;2023-05-02T07:59:41;9.80;99.90
1948;DHT22;974;52.400;9.818;2023-05-02T08:02:06;9.70;99.90
1948;DHT22;974;52.400;9.818;2023-05-02T08:04:32;9.70;99.90
1948;DHT22;974;52.400;9.818;2023-05-02T08:06:58;9.70;99.90
1948;DHT22;974;52.400;9.818;2023-05-02T08:09:23;9.80;99.90
1948;DHT22;974;52.400;9.818;2023-05-02T08:11:49;10.00;99.90
1948;DHT22;974;52.400;9.818;2023-05-02T08:14:15;10.00;99.90
1948;DHT22;974;52.400;9.818;2023-05-02T08:16:41;9.90;99.90
1948;DHT22;974;52.400;9.818;2023-05-02T08:19:06;10.00;99.90
1948;DHT22;974;52.400;9.818;2023-05-02T08:21:32;10.00;99.90
1948;DHT22;974;52.400;9.818;2023-05-02T08:23:58;10.10;99.90
1948;DHT22;974;52.400;9.818;2023-05-02T08:26:24;10.20;99.90
1948;DHT22;974;52.400;9.818;2023-05-02T08:28:56;10.10;99.90
1948;DHT22;974;52.400;9.818;2023-05-02T08:31:21;10.20;99.90
1948;DHT22;974;52.400;9.818;2023-05-02T08:33:47;10.30;99.90
1948;DHT22;974;52.400;9.818;2023-05-02T08:36:17;10.00;99.90
1948;DHT22;974;52.400;9.818;2023-05-02T08:38:44;10.10;99.90
1948;DHT22;974;52.400;9.818;2023-05-02T08:41:13;10.10;99.90
1948;DHT22;974;52.400;9.818;2023-05-02T08:43:39;10.10;99.90
1948;DHT22;974;52.400;9.818;2023-05-02T08:46:06;10.00;99.90
1948;DHT22;974;52.400;9.818;2023-05-02T08:48:34;10.00;99.90
1948;DHT22;974;52.400;9.818;2023-05-02T08:51:02;10.00;99.90
1948;DHT22;974;52.400;9.818;2023-05-02T08:53:30;9.90;99.90
1948;DHT22;974;52.400;9.818;2023-05-02T08:55:56;10.20;99.90
1948;DHT22;974;52.400;9.818;2023-05-02T08:58:22;9.90;99.90
1948;DHT22;974;52.400;9.818;2023-05-02T09:00:49;9.70;99.90
1948;DHT22;974;52.400;9.818;2023-05-02T09:03:29;10.00;99.90
1948;DHT22;974;52.400;9.818;2023-05-02T09:06:05;9.80;99.90
1948;DHT22;974;52.400;9.818;2023-05-02T09:08:32;9.90;99.90
1948;DHT22;974;52.400;9.818;2023-05-02T09:10:58;10.00;99.90
1948;DHT22;974;52.400;9.818;2023-05-02T09:13:41;9.70;99.90
1948;DHT22;974;52.400;9.818;2023-05-02T09:16:12;9.70;99.90
1948;DHT22;974;52.400;9.818;2023-05-02T09:18:45;9.50;99.90
1948;DHT22;974;52.400;9.818;2023-05-02T09:21:15;9.40;99.90
1948;DHT22;974;52.400;9.818;2023-05-02T09:23:43;9.30;99.90
1948;DHT22;974;52.400;9.818;2023-05-02T09:26:24;9.50;99.90
1948;DHT22;974;52.400;9.818;2023-05-02T09:29:00;9.40;99.90
1948;DHT22;974;52.400;9.818;2023-05-02T09:31:29;9.60;99.90
1948;DHT22;974;52.400;9.818;2023-05-02T09:34:10;9.80;99.90
1948;DHT22;974;52.400;9.818;2023-05-02T09:36:44;9.80;99.90
1948;DHT22;974;52.400;9.818;2023-05-02T09:39:15;10.10;99.90
1948;DHT22;974;52.400;9.818;2023-05-02T09:41:44;9.80;99.90
1948;DHT22;974;52.400;9.818;2023-05-02T09:44:12;10.00;99.90
1948;DHT22;974;52.400;9.818;2023-05-02T09:46:42;10.10;99.90
1948;DHT22;974;52.400;9.818;2023-05-02T09:49:07;10.20;99.90
1948;DHT22;974;52.400;9.818;2023-05-02T09:51:34;10.40;99.90
1948;DHT22;974;52.400;9.818;2023-05-02T09:53:59;10.50;99.90
1948;DHT22;974;52.400;9.818;2023-05-02T09:56:25;10.10;99.90
1948;DHT22;974;52.400;9.818;2023-05-02T09:58:50;10.50;99.90
1948;DHT22;974;52.400;9.818;2023-05-02T10:01:17;10.60;99.90
1948;DHT22;974;52.400;9.818;2023-05-02T10:03:46;10.80;99.90
1948;DHT22;974;52.400;9.818;2023-05-02T10:06:12;11.00;99.90
1948;DHT22;974;52.400;9.818;2023-05-02T10:08:41;11.10;99.90
1948;DHT22;974;52.400;9.818;2023-05-02T10:11:08;10.60;99.90
1948;DHT22;974;52.400;9.818;2023-05-02T10:13:37;10.40;99.90
1948;DHT22;974;52.400;9.818;2023-05-02T10:16:04;10.60;99.90
1948;DHT22;974;52.400;9.818;2023-05-02T10:18:57;10.60;99.90
1948;DHT22;974;52.400;9.818;2023-05-02T10:21:27;10.70;99.90
1948;DHT22;974;52.400;9.818;2023-05-02T10:23:53;10.60;99.90
1948;DHT22;974;52.400;9.818;2023-05-02T10:26:18;10.70;99.90
1948;DHT22;974;52.400;9.818;2023-05-02T10:28:46;10.80;99.90
1948;DHT22;974;52.400;9.818;2023-05-02T10:31:13;10.80;99.90
1948;DHT22;974;52.400;9.818;2023-05-02T10:33:39;10.90;99.90
1948;DHT22;974;52.400;9.818;2023-05-02T10:36:09;11.00;99.90
1948;DHT22;974;52.400;9.818;2023-05-02T10:38:35;11.00;99.90
1948;DHT22;974;52.400;9.818;2023-05-02T10:41:08;10.90;99.90
1948;DHT22;974;52.400;9.818;2023-05-02T10:43:35;10.90;99.90
1948;DHT22;974;52.400;9.818;2023-05-02T10:46:02;10.90;99.90
1948;DHT22;974;52.400;9.818;2023-05-02T10:48:28;11.00;99.90
1948;DHT22;974;52.400;9.818;2023-05-02T10:50:56;11.10;99.90
1948;DHT22;974;52.400;9.818;2023-05-02T10:56:12;11.20;99.90
1948;DHT22;974;52.400;9.818;2023-05-02T10:58:44;11.10;99.90
1948;DHT22;974;52.400;9.818;2023-05-02T11:03:56;11.10;99.90
1948;DHT22;974;52.400;9.818;2023-05-02T11:06:22;10.80;99.90
1948;DHT22;974;52.400;9.818;2023-05-02T11:08:48;10.80;99.90
1948;DHT22;974;52.400;9.818;2023-05-02T11:11:39;10.70;99.90
1948;DHT22;974;52.400;9.818;2023-05-02T11:14:05;11.10;99.90
1948;DHT22;974;52.400;9.818;2023-05-02T11:19:21;11.30;99.90
1948;DHT22;974;52.400;9.818;2023-05-02T11:21:47;11.60;99.90
1948;DHT22;974;52.400;9.818;2023-05-02T11:24:41;11.40;99.90
1948;DHT22;974;52.400;9.818;2023-05-02T11:27:36;11.60;99.90
1948;DHT22;974;52.400;9.818;2023-05-02T11:30:06;12.10;99.90
1948;DHT22;974;52.400;9.818;2023-05-02T11:35:21;12.90;99.90
1948;DHT22;974;52.400;9.818;2023-05-02T11:38:08;13.10;98.50
1948;DHT22;974;52.400;9.818;2023-05-02T11:40:34;12.50;98.60
1948;DHT22;974;52.400;9.818;2023-05-02T11:43:00;12.20;98.00
1948;DHT22;974;52.400;9.818;2023-05-02T11:45:36;11.70;98.10
1948;DHT22;974;52.400;9.818;2023-05-02T11:48:05;11.70;98.30
1948;DHT22;974;52.400;9.818;2023-05-02T11:50:32;11.70;98.60
1948;DHT22;974;52.400;9.818;2023-05-02T11:52:57;11.80;98.30
1948;DHT22;974;52.400;9.818;2023-05-02T11:55:23;11.80;98.20
1948;DHT22;974;52.400;9.818;2023-05-02T11:57:49;11.80;98.00
1948;DHT22;974;52.400;9.818;2023-05-02T12:00:15;11.70;98.20
1948;DHT22;974;52.400;9.818;2023-05-02T12:02:42;12.20;98.30
1948;DHT22;974;52.400;9.818;2023-05-02T12:05:10;11.90;97.20
1948;DHT22;974;52.400;9.818;2023-05-02T12:07:45;13.30;99.70
1948;DHT22;974;52.400;9.818;2023-05-02T12:10:12;18.80;95.70
1948;DHT22;974;52.400;9.818;2023-05-02T12:12:39;20.50;85.60
1948;DHT22;974;52.400;9.818;2023-05-02T12:15:05;19.00;72.40
1948;DHT22;974;52.400;9.818;2023-05-02T12:17:33;17.30;74.50
1948;DHT22;974;52.400;9.818;2023-05-02T12:19:59;16.50;75.30
1948;DHT22;974;52.400;9.818;2023-05-02T12:22:27;20.20;70.30
1948;DHT22;974;52.400;9.818;2023-05-02T12:24:53;23.40;67.90
1948;DHT22;974;52.400;9.818;2023-05-02T12:27:18;22.90;58.40
1948;DHT22;974;52.400;9.818;2023-05-02T12:29:46;20.10;52.20
1948;DHT22;974;52.400;9.818;2023-05-02T12:32:12;20.80;55.50
1948;DHT22;974;52.400;9.818;2023-05-02T12:34:39;19.60;52.80
1948;DHT22;974;52.400;9.818;2023-05-02T12:37:06;20.30;54.20
1948;DHT22;974;52.400;9.818;2023-05-02T12:39:40;19.30;55.40
1948;DHT22;974;52.400;9.818;2023-05-02T12:42:12;17.40;56.50
1948;DHT22;974;52.400;9.818;2023-05-02T12:44:46;16.30;59.10
1948;DHT22;974;52.400;9.818;2023-05-02T12:47:14;16.00;59.60
1948;DHT22;974;52.400;9.818;2023-05-02T12:49:56;15.80;62.20
1948;DHT22;974;52.400;9.818;2023-05-02T12:52:48;15.70;63.50
1948;DHT22;974;52.400;9.818;2023-05-02T12:57:44;15.70;63.60
1948;DHT22;974;52.400;9.818;2023-05-02T13:00:10;15.10;63.20
1948;DHT22;974;52.400;9.818;2023-05-02T13:02:36;14.50;64.10
1948;DHT22;974;52.400;9.818;2023-05-02T13:05:01;14.60;65.40
1948;DHT22;974;52.400;9.818;2023-05-02T13:07:27;14.80;65.90
1948;DHT22;974;52.400;9.818;2023-05-02T13:09:52;15.20;65.50
1948;DHT22;974;52.400;9.818;2023-05-02T13:12:18;15.20;64.10
1948;DHT22;974;52.400;9.818;2023-05-02T13:14:43;14.90;62.90
1948;DHT22;974;52.400;9.818;2023-05-02T13:17:09;14.40;59.90
1948;DHT22;974;52.400;9.818;2023-05-02T13:19:34;15.10;63.00
1948;DHT22;974;52.400;9.818;2023-05-02T13:22:00;15.00;62.60
1948;DHT22;974;52.400;9.818;2023-05-02T13:24:25;14.90;64.30
1948;DHT22;974;52.400;9.818;2023-05-02T13:26:51;14.10;63.50
1948;DHT22;974;52.400;9.818;2023-05-02T13:29:16;14.00;64.10
1948;DHT22;974;52.400;9.818;2023-05-02T13:31:42;14.00;64.70
1948;DHT22;974;52.400;9.818;2023-05-02T13:34:07;13.80;64.80
1948;DHT22;974;52.400;9.818;2023-05-02T13:36:33;13.70;66.10
1948;DHT22;974;52.400;9.818;2023-05-02T13:38:59;14.10;67.20
1948;DHT22;974;52.400;9.818;2023-05-02T13:41:24;14.30;67.70
1948;DHT22;974;52.400;9.818;2023-05-02T13:43:50;14.30;66.50
1948;DHT22;974;52.400;9.818;2023-05-02T13:46:15;13.70;65.60
1948;DHT22;974;52.400;9.818;2023-05-02T13:48:41;13.60;67.20
1948;DHT22;974;52.400;9.818;2023-05-02T13:51:07;13.50;67.10
1948;DHT22;974;52.400;9.818;2023-05-02T13:53:33;13.00;68.20
1948;DHT22;974;52.400;9.818;2023-05-02T13:55:58;13.00;69.10
1948;DHT22;974;52.400;9.818;2023-05-02T13:58:24;13.10;69.20
1948;DHT22;974;52.400;9.818;2023-05-02T14:00:49;13.20;69.50
1948;DHT22;974;52.400;9.818;2023-05-02T14:03:16;13.20;69.20
1948;DHT22;974;52.400;9.818;2023-05-02T14:05:42;13.40;69.00
1948;DHT22;974;52.400;9.818;2023-05-02T14:08:09;13.40;68.30
1948;DHT22;974;52.400;9.818;2023-05-02T14:10:35;13.10;67.90
1948;DHT22;974;52.400;9.818;2023-05-02T14:13:03;12.80;68.50
1948;DHT22;974;52.400;9.818;2023-05-02T14:15:29;12.30;69.70
1948;DHT22;974;52.400;9.818;2023-05-02T14:17:55;12.40;70.60
1948;DHT22;974;52.400;9.818;2023-05-02T14:20:20;12.50;70.50
1948;DHT22;974;52.400;9.818;2023-05-02T14:22:47;12.40;70.60
1948;DHT22;974;52.400;9.818;2023-05-02T14:25:13;12.60;69.40
1948;DHT22;974;52.400;9.818;2023-05-02T14:27:40;12.80;70.10
1948;DHT22;974;52.400;9.818;2023-05-02T14:30:07;12.80;69.60
1948;DHT22;974;52.400;9.818;2023-05-02T14:32:32;12.40;68.30
1948;DHT22;974;52.400;9.818;2023-05-02T14:34:58;12.30;70.20
1948;DHT22;974;52.400;9.818;2023-05-02T14:37:23;12.20;72.20
1948;DHT22;974;52.400;9.818;2023-05-02T14:39:49;12.20;73.60
1948;DHT22;974;52.400;9.818;2023-05-02T14:42:16;12.10;74.10
1948;DHT22;974;52.400;9.818;2023-05-02T14:44:42;12.10;75.40
1948;DHT22;974;52.400;9.818;2023-05-02T14:47:07;11.60;76.90
1948;DHT22;974;52.400;9.818;2023-05-02T14:49:33;11.70;77.50
1948;DHT22;974;52.400;9.818;2023-05-02T14:51:58;11.80;78.50
1948;DHT22;974;52.400;9.818;2023-05-02T14:54:27;11.80;78.40
1948;DHT22;974;52.400;9.818;2023-05-02T14:56:54;11.90;78.60
1948;DHT22;974;52.400;9.818;2023-05-02T14:59:20;11.80;77.60
1948;DHT22;974;52.400;9.818;2023-05-02T15:01:46;11.80;76.70
1948;DHT22;974;52.400;9.818;2023-05-02T15:04:11;11.70;76.70
1948;DHT22;974;52.400;9.818;2023-05-02T15:06:37;11.60;76.20
1948;DHT22;974;52.400;9.818;2023-05-02T15:09:03;11.60;75.80
1948;DHT22;974;52.400;9.818;2023-05-02T15:11:29;11.30;74.40
1948;DHT22;974;52.400;9.818;2023-05-02T15:13:54;11.40;75.50
1948;DHT22;974;52.400;9.818;2023-05-02T15:16:20;11.40;75.10
1948;DHT22;974;52.400;9.818;2023-05-02T15:18:45;11.50;74.60
1948;DHT22;974;52.400;9.818;2023-05-02T15:21:11;11.50;73.50
1948;DHT22;974;52.400;9.818;2023-05-02T15:23:37;11.60;74.00
1948;DHT22;974;52.400;9.818;2023-05-02T15:26:02;11.20;74.40
1948;DHT22;974;52.400;9.818;2023-05-02T15:28:28;11.20;75.10
1948;DHT22;974;52.400;9.818;2023-05-02T15:30:53;11.10;75.70
1948;DHT22;974;52.400;9.818;2023-05-02T15:33:19;11.00;76.00
1948;DHT22;974;52.400;9.818;2023-05-02T15:35:52;11.10;76.40
1948;DHT22;974;52.400;9.818;2023-05-02T15:38:19;11.20;76.30
1948;DHT22;974;52.400;9.818;2023-05-02T15:40:55;11.30;76.60
1948;DHT22;974;52.400;9.818;2023-05-02T15:43:22;11.30;75.50
1948;DHT22;974;52.400;9.818;2023-05-02T15:45:56;11.20;75.40
1948;DHT22;974;52.400;9.818;2023-05-02T15:48:23;11.10;74.90
1948;DHT22;974;52.400;9.818;2023-05-02T15:50:51;11.20;75.10
1948;DHT22;974;52.400;9.818;2023-05-02T15:53:17;11.00;75.40
1948;DHT22;974;52.400;9.818;2023-05-02T15:55:43;11.10;76.30
1948;DHT22;974;52.400;9.818;2023-05-02T15:58:11;11.30;77.10
1948;DHT22;974;52.400;9.818;2023-05-02T16:00:37;11.20;78.00
1948;DHT22;974;52.400;9.818;2023-05-02T16:03:03;11.00;78.90
1948;DHT22;974;52.400;9.818;2023-05-02T16:05:29;11.10;79.50
1948;DHT22;974;52.400;9.818;2023-05-02T16:07:55;11.20;80.50
1948;DHT22;974;52.400;9.818;2023-05-02T16:10:21;11.00;79.70
1948;DHT22;974;52.400;9.818;2023-05-02T16:12:46;11.10;80.20
1948;DHT22;974;52.400;9.818;2023-05-02T16:15:12;11.10;79.80
1948;DHT22;974;52.400;9.818;2023-05-02T16:17:37;11.10;80.70
1948;DHT22;974;52.400;9.818;2023-05-02T16:20:04;11.20;80.30
1948;DHT22;974;52.400;9.818;2023-05-02T16:22:29;11.10;80.20
1948;DHT22;974;52.400;9.818;2023-05-02T16:24:55;11.20;80.60
1948;DHT22;974;52.400;9.818;2023-05-02T16:27:20;11.10;80.00
1948;DHT22;974;52.400;9.818;2023-05-02T16:29:46;11.10;79.50
1948;DHT22;974;52.400;9.818;2023-05-02T16:32:12;11.10;79.60
1948;DHT22;974;52.400;9.818;2023-05-02T16:34:38;11.00;79.70
1948;DHT22;974;52.400;9.818;2023-05-02T16:37:04;11.10;79.40
1948;DHT22;974;52.400;9.818;2023-05-02T16:39:30;11.00;78.60
1948;DHT22;974;52.400;9.818;2023-05-02T16:41:55;10.90;78.20
1948;DHT22;974;52.400;9.818;2023-05-02T16:44:20;10.80;78.60
1948;DHT22;974;52.400;9.818;2023-05-02T16:46:46;10.60;78.70
1948;DHT22;974;52.400;9.818;2023-05-02T16:49:12;10.50;79.30
1948;DHT22;974;52.400;9.818;2023-05-02T16:51:38;10.50;79.70
1948;DHT22;974;52.400;9.818;2023-05-02T16:54:03;10.40;80.30
1948;DHT22;974;52.400;9.818;2023-05-02T16:56:29;10.50;81.00